createdAt,value
2022-08-19T00:02:05.950Z,100552.28
2022-08-19T00:07:08.386Z,100534.69
2022-08-19T00:12:11.943Z,100497.06
2022-08-19T00:17:14.170Z,100487.38
2022-08-19T00:22:16.302Z,100517.94
2022-08-19T00:27:25.060Z,100524.41
2022-08-19T00:32:28.622Z,100522.38
2022-08-19T00:37:32.027Z,100526.16
2022-08-19T00:42:35.614Z,100524.78
2022-08-19T00:47:37.679Z,100511.63
2022-08-19T00:52:43.815Z,100503.22
2022-08-19T00:57:56.224Z,100487.50
2022-08-19T01:02:58.722Z,100514.22
2022-08-19T01:08:03.287Z,100528.41
2022-08-19T01:13:06.745Z,100515.53
2022-08-19T01:18:12.351Z,100535.47
2022-08-19T01:23:17.282Z,100531.03
2022-08-19T01:28:33.624Z,100533.31
2022-08-19T01:33:42.159Z,100563.69
2022-08-19T01:38:46.239Z,100561.59
2022-08-19T01:44:09.789Z,100569.75
2022-08-19T01:49:11.320Z,100557.69
2022-08-19T01:54:23.450Z,100523.25
2022-08-19T01:59:32.286Z,100511.16
2022-08-19T02:04:34.779Z,100491.06
2022-08-19T02:09:39.234Z,100476.78
2022-08-19T02:14:41.841Z,100502.03
2022-08-19T02:19:44.029Z,100476.78
2022-08-19T02:24:47.106Z,100478.88
2022-08-19T02:29:50.900Z,100472.53
2022-08-19T02:34:52.999Z,100439.50
2022-08-19T02:39:56.655Z,100426.88
2022-08-19T02:44:58.526Z,100425.94
2022-08-19T02:50:02.807Z,100434.03
2022-08-19T02:55:08.026Z,100449.34
2022-08-19T03:00:10.987Z,100439.41
2022-08-19T03:05:12.996Z,100443.06
2022-08-19T03:10:16.708Z,100444.97
2022-08-19T03:15:20.146Z,100444.97
2022-08-19T03:20:21.884Z,100438.03
2022-08-19T03:25:25.495Z,100432.56
2022-08-19T03:30:27.243Z,100431.69
2022-08-19T03:35:29.533Z,100427.41
2022-08-19T03:40:33.604Z,100430.03
2022-08-19T03:45:35.808Z,100411.34
2022-08-19T03:50:40.197Z,100397.00
2022-08-19T03:55:43.867Z,100398.22
2022-08-19T04:00:45.652Z,100405.53
2022-08-19T04:05:48.162Z,100415.44
2022-08-19T04:10:51.588Z,100424.22
2022-08-19T04:15:54.196Z,100438.56
2022-08-19T04:20:56.313Z,100424.72
2022-08-19T04:25:59.698Z,100431.09
2022-08-19T04:31:01.379Z,100451.50
2022-08-19T04:36:03.431Z,100445.66
2022-08-19T04:41:06.811Z,100456.97
2022-08-19T04:46:10.024Z,100447.22
2022-08-19T04:51:14.201Z,100458.09
2022-08-19T04:56:18.284Z,100441.22
2022-08-19T05:01:22.916Z,100432.53
2022-08-19T05:06:25.260Z,100431.91
2022-08-19T05:11:31.748Z,100427.38
2022-08-19T05:16:33.976Z,100416.91
2022-08-19T05:21:37.239Z,100429.06
2022-08-19T05:26:42.939Z,100429.91
2022-08-19T05:31:46.116Z,100450.66
2022-08-19T05:36:48.843Z,100461.94
2022-08-19T05:41:55.402Z,100472.25
2022-08-19T05:46:57.468Z,100480.09
2022-08-19T05:51:59.391Z,100492.06
2022-08-19T05:57:03.633Z,100472.28
2022-08-19T06:02:07.128Z,100446.00
2022-08-19T06:07:12.683Z,100443.84
2022-08-19T06:12:15.961Z,100438.91
2022-08-19T06:17:20.858Z,100465.00
2022-08-19T06:22:23.633Z,100481.88
2022-08-19T06:27:27.073Z,100516.84
2022-08-19T06:32:28.792Z,100511.28
2022-08-19T06:37:31.129Z,100517.53
2022-08-19T06:42:34.494Z,100513.63
2022-08-19T06:47:36.645Z,100501.38
2022-08-19T06:52:38.715Z,100497.50
2022-08-19T06:57:42.547Z,100489.84
2022-08-19T07:02:49.758Z,100491.59
2022-08-19T07:08:04.577Z,100490.41
2022-08-19T07:13:07.995Z,100499.59
2022-08-19T07:18:11.528Z,100517.69
2022-08-19T07:23:16.029Z,100515.53
2022-08-19T07:28:24.276Z,100531.88
2022-08-19T07:33:27.834Z,100535.88
2022-08-19T07:38:29.805Z,100543.97
2022-08-19T07:43:34.890Z,100540.13
2022-08-19T07:48:37.869Z,100550.22
2022-08-19T07:53:40.157Z,100555.59
2022-08-19T07:58:46.286Z,100552.91
2022-08-19T08:03:49.131Z,100559.66
2022-08-19T08:08:51.146Z,100568.88
2022-08-19T08:14:00.760Z,100560.34
2022-08-19T08:19:14.829Z,100580.59
2022-08-19T08:24:29.205Z,100586.09
2022-08-19T08:29:35.380Z,100571.91
2022-08-19T08:34:37.462Z,100572.53
2022-08-19T08:39:39.561Z,100581.63
2022-08-19T08:50:04.715Z,100588.97
2022-08-19T08:55:11.608Z,100592.56
2022-08-19T09:00:19.187Z,100582.97
2022-08-19T09:05:25.825Z,100604.97
2022-08-19T09:10:33.113Z,100620.28
2022-08-19T09:15:44.615Z,100602.00
2022-08-19T09:20:47.754Z,100591.91
2022-08-19T09:25:50.035Z,100597.84
2022-08-19T09:30:53.916Z,100586.53
2022-08-19T09:36:04.308Z,100587.94
2022-08-19T09:41:14.526Z,100583.81
2022-08-19T09:46:20.858Z,100581.63
2022-08-19T09:51:27.651Z,100589.28
2022-08-19T09:56:31.287Z,100600.13
2022-08-19T10:01:37.675Z,100598.34
2022-08-19T10:06:46.381Z,100598.88
2022-08-19T10:11:54.665Z,100594.09
2022-08-19T10:16:59.452Z,100591.59
2022-08-19T10:22:04.536Z,100588.44
2022-08-19T10:27:06.707Z,100585.09
2022-08-19T10:32:12.216Z,100584.91
2022-08-19T10:37:23.906Z,100587.44
2022-08-19T10:42:32.110Z,100584.53
2022-08-19T10:47:35.725Z,100579.75
2022-08-19T10:52:39.064Z,100583.06
2022-08-19T10:58:01.327Z,100587.91
2022-08-19T11:03:04.262Z,100604.41
2022-08-19T11:08:07.224Z,100606.06
2022-08-19T11:13:25.356Z,100602.50
2022-08-19T11:18:28.671Z,100606.34
2022-08-19T11:23:30.773Z,100601.69
2022-08-19T11:28:32.884Z,100608.50
2022-08-19T11:33:36.401Z,100601.31
2022-08-19T11:38:38.755Z,100607.06
2022-08-19T11:43:40.816Z,100605.91
2022-08-19T11:48:44.726Z,100617.50
2022-08-19T11:53:47.362Z,100618.44
2022-08-19T11:58:49.994Z,100625.34
2022-08-19T12:03:56.122Z,100635.72
2022-08-19T12:08:59.881Z,100627.44
2022-08-19T12:14:03.335Z,100637.75
2022-08-19T12:19:06.964Z,100649.22
2022-08-19T12:24:08.942Z,100651.91
2022-08-19T12:29:10.643Z,100646.38
2022-08-19T12:34:14.236Z,100644.78
2022-08-19T12:39:16.011Z,100650.47
2022-08-19T12:44:18.540Z,100639.91
2022-08-19T12:49:51.990Z,100651.38
2022-08-19T12:54:45.548Z,100656.19
2022-08-19T12:59:47.534Z,100662.59
2022-08-19T13:04:50.965Z,100668.09
2022-08-19T13:09:53.111Z,100678.59
2022-08-19T13:14:56.036Z,100674.38
2022-08-19T13:19:59.299Z,100668.00
2022-08-19T13:25:00.982Z,100667.78
2022-08-19T13:30:04.377Z,100658.47
2022-08-19T13:35:08.221Z,100664.13
2022-08-19T13:40:14.815Z,100661.63
2022-08-19T13:45:19.462Z,100657.53
2022-08-19T13:50:25.127Z,100654.06
2022-08-19T13:55:28.010Z,100651.97
2022-08-19T14:00:33.096Z,100649.03
2022-08-19T14:05:38.162Z,100654.84
2022-08-19T14:10:40.644Z,100653.41
2022-08-19T14:15:42.365Z,100653.47
2022-08-19T14:20:46.057Z,100653.22
2022-08-19T14:25:47.770Z,100653.22
2022-08-19T14:30:49.473Z,100653.22
2022-08-19T14:35:59.692Z,100654.97
2022-08-19T14:41:14.470Z,100659.78
2022-08-19T14:46:19.069Z,100662.34
2022-08-19T14:51:26.034Z,100664.28
2022-08-19T14:56:30.046Z,100673.16
2022-08-19T15:01:31.928Z,100678.38
2022-08-19T15:06:35.251Z,100688.13
2022-08-19T15:11:37.606Z,100691.88
2022-08-19T15:16:39.307Z,100699.91
2022-08-19T15:21:42.397Z,100700.47
2022-08-19T15:26:44.150Z,100717.53
2022-08-19T15:31:46.172Z,100722.94
2022-08-19T15:36:52.690Z,100720.78
2022-08-19T15:41:54.788Z,100713.66
2022-08-19T15:46:56.936Z,100703.50
2022-08-19T15:52:00.554Z,100709.06
2022-08-19T15:57:02.213Z,100698.78
2022-08-19T16:02:04.213Z,100702.03
2022-08-19T16:07:07.652Z,100695.56
2022-08-19T16:12:09.683Z,100699.47
2022-08-19T16:17:13.474Z,100695.66
2022-08-19T16:22:17.561Z,100703.56
2022-08-19T16:27:19.351Z,100713.50
2022-08-19T16:32:21.612Z,100714.66
2022-08-19T16:37:24.999Z,100717.94
2022-08-19T16:42:26.805Z,100712.97
2022-08-19T16:47:28.681Z,100712.53
2022-08-19T16:52:32.368Z,100713.78
2022-08-19T16:57:34.358Z,100715.53
2022-08-19T17:02:36.136Z,100705.44
2022-08-19T17:07:40.085Z,100710.69
2022-08-19T17:12:41.805Z,100703.44
2022-08-19T17:17:43.518Z,100712.69
2022-08-19T17:22:47.136Z,100717.72
2022-08-19T17:27:49.203Z,100716.94
2022-08-19T17:32:51.514Z,100721.25
2022-08-19T17:37:54.674Z,100725.38
2022-08-19T17:42:56.768Z,100728.56
2022-08-19T17:47:58.948Z,100722.00
2022-08-19T17:53:02.657Z,100738.09
2022-08-19T17:58:05.273Z,100746.59
2022-08-19T18:03:10.316Z,100753.53
2022-08-19T18:08:15.956Z,100764.66
2022-08-19T18:13:18.257Z,100760.84
2022-08-19T18:18:20.305Z,100748.72
2022-08-19T18:23:45.503Z,100755.56
2022-08-19T18:28:49.986Z,100764.59
2022-08-19T18:33:51.959Z,100771.25
2022-08-19T18:38:55.074Z,100771.75
2022-08-19T18:43:56.929Z,100787.94
2022-08-19T18:48:58.665Z,100777.31
2022-08-19T18:54:02.164Z,100786.03
2022-08-19T18:59:04.126Z,100788.97
2022-08-19T19:04:09.078Z,100800.66
2022-08-19T19:09:15.740Z,100814.13
2022-08-19T19:14:45.735Z,100813.47
2022-08-19T19:19:44.738Z,100820.47
2022-08-19T19:24:47.851Z,100816.50
2022-08-19T19:29:52.310Z,100816.31
2022-08-19T19:34:54.593Z,100826.00
2022-08-19T19:39:57.727Z,100830.09
2022-08-19T19:44:59.593Z,100826.16
2022-08-19T19:50:14.273Z,100829.00
2022-08-19T19:55:18.741Z,100820.06
2022-08-19T20:00:21.431Z,100839.97
2022-08-19T20:05:23.659Z,100828.22
2022-08-19T20:10:27.186Z,100824.31
2022-08-19T20:15:29.430Z,100824.66
2022-08-19T20:20:31.819Z,100818.41
2022-08-19T20:25:37.090Z,100813.16
2022-08-19T20:30:44.418Z,100804.44
2022-08-19T20:35:48.387Z,100809.97
2022-08-19T20:40:51.530Z,100821.88
2022-08-19T20:45:54.276Z,100825.59
2022-08-19T20:50:56.564Z,100816.50
2022-08-19T20:56:00.174Z,100812.03
2022-08-19T21:01:03.749Z,100799.09
2022-08-19T21:06:05.917Z,100794.75
2022-08-19T21:11:09.691Z,100790.00
2022-08-19T21:16:11.433Z,100804.59
2022-08-19T21:21:13.309Z,100817.13
2022-08-19T21:26:16.521Z,100829.66
2022-08-19T21:31:18.364Z,100815.38
2022-08-19T21:36:20.109Z,100837.66
2022-08-19T21:41:23.628Z,100845.41
2022-08-19T21:46:26.040Z,100848.13
2022-08-19T21:56:49.692Z,100823.44
2022-08-19T22:02:01.769Z,100838.69
2022-08-19T22:07:13.937Z,100838.63
2022-08-19T22:12:22.805Z,100837.44
2022-08-19T22:17:25.603Z,100841.13
2022-08-19T22:22:30.333Z,100844.88
2022-08-19T22:27:33.495Z,100847.50
2022-08-19T22:32:35.387Z,100844.72
2022-08-19T22:37:37.145Z,100834.94
2022-08-19T22:42:40.542Z,100826.97
2022-08-19T22:47:42.656Z,100815.66
2022-08-19T22:52:51.628Z,100806.97
2022-08-19T22:57:56.395Z,100811.25
2022-08-19T23:02:58.874Z,100818.56
2022-08-19T23:08:00.614Z,100816.19
2022-08-19T23:13:03.948Z,100806.50
2022-08-19T23:18:06.031Z,100804.09
2022-08-19T23:23:10.338Z,100824.09
2022-08-19T23:28:13.671Z,100823.44
2022-08-19T23:33:17.557Z,100810.78
2022-08-19T23:38:19.870Z,100802.22
2022-08-19T23:43:25.179Z,100797.53
2022-08-19T23:48:28.322Z,100781.69
2022-08-19T23:53:30.707Z,100777.63
2022-08-19T23:58:35.684Z,100787.72
